sensor_id;sensor_type;location;lat;lon;timestamp;pressure;altitude;pressure_sealevel;temperature;humidity
16664;BME280;8445;51.270;9.434;2023-02-22T00:00:39;99508.34;;;9.30;77.30
16664;BME280;8445;51.270;9.434;2023-02-22T00:03:16;99498.63;;;9.31;77.52
16664;BME280;8445;51.270;9.434;2023-02-22T00:05:44;99506.25;;;9.36;77.24
16664;BME280;8445;51.270;9.434;2023-02-22T00:08:14;99495.69;;;9.36;77.61
16664;BME280;8445;51.270;9.434;2023-02-22T00:10:40;99486.81;;;9.37;77.42
16664;BME280;8445;51.270;9.434;2023-02-22T00:13:08;99485.13;;;9.36;77.29
16664;BME280;8445;51.270;9.434;2023-02-22T00:15:35;99487.78;;;9.36;77.25
16664;BME280;8445;51.270;9.434;2023-02-22T00:18:01;99487.78;;;9.36;77.49
16664;BME280;8445;51.270;9.434;2023-02-22T00:20:27;99485.75;;;9.39;77.43
16664;BME280;8445;51.270;9.434;2023-02-22T00:22:52;99485.53;;;9.42;77.49
16664;BME280;8445;51.270;9.434;2023-02-22T00:25:20;99488.91;;;9.44;77.59
16664;BME280;8445;51.270;9.434;2023-02-22T00:27:47;99488.78;;;9.46;77.56
16664;BME280;8445;51.270;9.434;2023-02-22T00:30:20;99484.25;;;9.48;77.70
16664;BME280;8445;51.270;9.434;2023-02-22T00:32:47;99491.22;;;9.49;77.15
16664;BME280;8445;51.270;9.434;2023-02-22T00:35:14;99480.66;;;9.49;77.61
16664;BME280;8445;51.270;9.434;2023-02-22T00:37:40;99480.78;;;9.47;77.73
16664;BME280;8445;51.270;9.434;2023-02-22T00:40:10;99481.53;;;9.49;77.39
16664;BME280;8445;51.270;9.434;2023-02-22T00:42:36;99477.94;;;9.51;77.43
16664;BME280;8445;51.270;9.434;2023-02-22T00:45:03;99479.84;;;9.48;77.71
16664;BME280;8445;51.270;9.434;2023-02-22T00:47:29;99478.97;;;9.48;77.55
16664;BME280;8445;51.270;9.434;2023-02-22T00:49:55;99479.91;;;9.47;77.39
16664;BME280;8445;51.270;9.434;2023-02-22T00:52:21;99476.66;;;9.43;77.66
16664;BME280;8445;51.270;9.434;2023-02-22T00:54:46;99465.25;;;9.43;77.81
16664;BME280;8445;51.270;9.434;2023-02-22T00:57:12;99461.66;;;9.44;77.84
16664;BME280;8445;51.270;9.434;2023-02-22T00:59:37;99468.63;;;9.45;77.94
16664;BME280;8445;51.270;9.434;2023-02-22T01:02:03;99466.72;;;9.47;78.27
16664;BME280;8445;51.270;9.434;2023-02-22T01:04:28;99469.16;;;9.50;78.09
16664;BME280;8445;51.270;9.434;2023-02-22T01:06:54;99464.00;;;9.48;77.63
16664;BME280;8445;51.270;9.434;2023-02-22T01:09:20;99460.50;;;9.48;77.70
16664;BME280;8445;51.270;9.434;2023-02-22T01:11:47;99459.53;;;9.49;77.81
16664;BME280;8445;51.270;9.434;2023-02-22T01:14:13;99461.22;;;9.50;78.00
16664;BME280;8445;51.270;9.434;2023-02-22T01:16:38;99457.41;;;9.54;77.89
16664;BME280;8445;51.270;9.434;2023-02-22T01:19:04;99454.03;;;9.52;78.96
16664;BME280;8445;51.270;9.434;2023-02-22T01:21:30;99452.78;;;9.58;78.18
16664;BME280;8445;51.270;9.434;2023-02-22T01:23:56;99448.31;;;9.58;77.73
16664;BME280;8445;51.270;9.434;2023-02-22T01:26:21;99446.63;;;9.57;77.85
16664;BME280;8445;51.270;9.434;2023-02-22T01:28:47;99445.59;;;9.60;77.72
16664;BME280;8445;51.270;9.434;2023-02-22T01:31:12;99450.03;;;9.59;77.79
16664;BME280;8445;51.270;9.434;2023-02-22T01:33:39;99447.38;;;9.59;77.45
16664;BME280;8445;51.270;9.434;2023-02-22T01:36:06;99439.44;;;9.59;77.70
16664;BME280;8445;51.270;9.434;2023-02-22T01:38:37;99442.09;;;9.59;78.03
16664;BME280;8445;51.270;9.434;2023-02-22T01:41:03;99441.13;;;9.60;77.80
16664;BME280;8445;51.270;9.434;2023-02-22T01:43:30;99439.44;;;9.59;77.64
16664;BME280;8445;51.270;9.434;2023-02-22T01:48:42;99429.84;;;9.58;77.79
16664;BME280;8445;51.270;9.434;2023-02-22T01:51:16;99427.53;;;9.54;78.12
16664;BME280;8445;51.270;9.434;2023-02-22T01:53:55;99416.97;;;9.54;78.93
16664;BME280;8445;51.270;9.434;2023-02-22T01:56:22;99423.81;;;9.56;78.25
16664;BME280;8445;51.270;9.434;2023-02-22T01:58:53;99421.91;;;9.58;78.09
16664;BME280;8445;51.270;9.434;2023-02-22T02:01:20;99417.59;;;9.57;77.98
16664;BME280;8445;51.270;9.434;2023-02-22T02:03:48;99406.19;;;9.57;78.16
16664;BME280;8445;51.270;9.434;2023-02-22T02:06:15;99416.84;;;9.55;77.77
16664;BME280;8445;51.270;9.434;2023-02-22T02:09:09;99409.66;;;9.57;78.44
16664;BME280;8445;51.270;9.434;2023-02-22T02:11:37;99401.22;;;9.52;78.40
16664;BME280;8445;51.270;9.434;2023-02-22T02:14:05;99395.44;;;9.47;78.23
16664;BME280;8445;51.270;9.434;2023-02-22T02:16:37;99402.53;;;9.46;78.44
16664;BME280;8445;51.270;9.434;2023-02-22T02:19:10;99403.47;;;9.45;78.67
16664;BME280;8445;51.270;9.434;2023-02-22T02:33:33;99385.81;;;9.46;78.86
16664;BME280;8445;51.270;9.434;2023-02-22T02:36:11;99384.13;;;9.45;78.81
16664;BME280;8445;51.270;9.434;2023-02-22T02:38:45;99382.44;;;9.44;78.98
16664;BME280;8445;51.270;9.434;2023-02-22T02:41:22;99389.41;;;9.45;79.05
16664;BME280;8445;51.270;9.434;2023-02-22T02:46:34;99382.44;;;9.44;78.89
16664;BME280;8445;51.270;9.434;2023-02-22T02:49:11;99375.72;;;9.40;78.89
16664;BME280;8445;51.270;9.434;2023-02-22T02:51:41;99381.63;;;9.43;78.86
16664;BME280;8445;51.270;9.434;2023-02-22T02:54:10;99376.56;;;9.40;78.69
16664;BME280;8445;51.270;9.434;2023-02-22T02:56:35;99383.53;;;9.41;78.67
16664;BME280;8445;51.270;9.434;2023-02-22T02:59:01;99376.47;;;9.42;78.86
16664;BME280;8445;51.270;9.434;2023-02-22T03:01:42;99368.41;;;9.43;78.86
16664;BME280;8445;51.270;9.434;2023-02-22T03:04:45;99375.25;;;9.46;79.28
16664;BME280;8445;51.270;9.434;2023-02-22T03:18:25;99359.63;;;9.43;79.16
16664;BME280;8445;51.270;9.434;2023-02-22T03:26:38;99364.81;;;9.44;78.95
16664;BME280;8445;51.270;9.434;2023-02-22T03:29:08;99356.91;;;9.44;78.82
16664;BME280;8445;51.270;9.434;2023-02-22T03:31:48;99355.81;;;9.47;78.86
16664;BME280;8445;51.270;9.434;2023-02-22T03:34:21;99356.03;;;9.44;78.69
16664;BME280;8445;51.270;9.434;2023-02-22T03:36:54;99353.31;;;9.45;78.94
16664;BME280;8445;51.270;9.434;2023-02-22T03:39:22;99360.50;;;9.43;78.80
16664;BME280;8445;51.270;9.434;2023-02-22T03:41:59;99351.72;;;9.43;78.90
16664;BME280;8445;51.270;9.434;2023-02-22T03:44:28;99354.13;;;9.46;78.56
16664;BME280;8445;51.270;9.434;2023-02-22T03:46:56;99349.72;;;9.46;78.49
16664;BME280;8445;51.270;9.434;2023-02-22T03:49:33;99354.13;;;9.46;78.76
16664;BME280;8445;51.270;9.434;2023-02-22T03:52:01;99363.97;;;9.44;78.81
16664;BME280;8445;51.270;9.434;2023-02-22T03:54:28;99355.44;;;9.40;78.79
16664;BME280;8445;51.270;9.434;2023-02-22T03:56:59;99351.22;;;9.38;79.01
16664;BME280;8445;51.270;9.434;2023-02-22T03:59:28;99349.53;;;9.37;78.78
16664;BME280;8445;51.270;9.434;2023-02-22T04:01:54;99347.00;;;9.35;79.31
16664;BME280;8445;51.270;9.434;2023-02-22T04:04:19;99354.19;;;9.33;79.22
16664;BME280;8445;51.270;9.434;2023-02-22T04:06:47;99342.78;;;9.32;79.40
16664;BME280;8445;51.270;9.434;2023-02-22T04:09:15;99347.34;;;9.30;79.83
16664;BME280;8445;51.270;9.434;2023-02-22T04:11:41;99348.06;;;9.32;79.57
16664;BME280;8445;51.270;9.434;2023-02-22T04:14:07;99348.81;;;9.34;79.34
16664;BME280;8445;51.270;9.434;2023-02-22T04:16:33;99345.44;;;9.32;79.26
16664;BME280;8445;51.270;9.434;2023-02-22T04:18:58;99345.53;;;9.31;79.46
16664;BME280;8445;51.270;9.434;2023-02-22T04:21:24;99341.31;;;9.28;79.78
16664;BME280;8445;51.270;9.434;2023-02-22T04:23:50;99341.31;;;9.28;79.79
16664;BME280;8445;51.270;9.434;2023-02-22T04:26:16;99339.50;;;9.29;79.99
16664;BME280;8445;51.270;9.434;2023-02-22T04:28:47;99336.03;;;9.28;79.65
16664;BME280;8445;51.270;9.434;2023-02-22T04:31:15;99331.59;;;9.29;79.57
16664;BME280;8445;51.270;9.434;2023-02-22T04:33:42;99332.44;;;9.29;79.86
16664;BME280;8445;51.270;9.434;2023-02-22T04:36:09;99335.09;;;9.29;79.41
16664;BME280;8445;51.270;9.434;2023-02-22T04:38:36;99341.31;;;9.28;79.62
16664;BME280;8445;51.270;9.434;2023-02-22T04:41:01;99335.91;;;9.30;79.62
16664;BME280;8445;51.270;9.434;2023-02-22T04:43:27;99339.63;;;9.27;79.66
16664;BME280;8445;51.270;9.434;2023-02-22T04:46:00;99336.25;;;9.25;79.52
16664;BME280;8445;51.270;9.434;2023-02-22T04:48:27;99338.16;;;9.23;79.35
16664;BME280;8445;51.270;9.434;2023-02-22T04:50:52;99338.25;;;9.22;79.78
16664;BME280;8445;51.270;9.434;2023-02-22T04:53:18;99331.41;;;9.19;79.62
16664;BME280;8445;51.270;9.434;2023-02-22T04:55:43;99328.66;;;9.20;79.93
16664;BME280;8445;51.270;9.434;2023-02-22T04:58:09;99326.00;;;9.20;79.54
16664;BME280;8445;51.270;9.434;2023-02-22T05:00:36;99319.69;;;9.23;79.49
16664;BME280;8445;51.270;9.434;2023-02-22T05:03:02;99324.00;;;9.24;79.60
16664;BME280;8445;51.270;9.434;2023-02-22T05:05:27;99329.28;;;9.24;79.38
16664;BME280;8445;51.270;9.434;2023-02-22T05:07:52;99333.72;;;9.24;79.75
16664;BME280;8445;51.270;9.434;2023-02-22T05:10:18;99333.72;;;9.24;79.62
16664;BME280;8445;51.270;9.434;2023-02-22T05:12:44;99332.88;;;9.23;79.92
16664;BME280;8445;51.270;9.434;2023-02-22T05:15:10;99327.59;;;9.23;79.74
16664;BME280;8445;51.270;9.434;2023-02-22T05:17:35;99330.34;;;9.22;79.42
16664;BME280;8445;51.270;9.434;2023-02-22T05:20:02;99327.81;;;9.20;79.63
16664;BME280;8445;51.270;9.434;2023-02-22T05:22:29;99333.31;;;9.17;79.07
16664;BME280;8445;51.270;9.434;2023-02-22T05:24:54;99327.31;;;9.15;79.74
16664;BME280;8445;51.270;9.434;2023-02-22T05:27:21;99333.53;;;9.14;79.71
16664;BME280;8445;51.270;9.434;2023-02-22T05:29:46;99326.56;;;9.13;79.78
16664;BME280;8445;51.270;9.434;2023-02-22T05:32:12;99329.94;;;9.15;79.86
16664;BME280;8445;51.270;9.434;2023-02-22T05:34:37;99322.97;;;9.14;79.36
16664;BME280;8445;51.270;9.434;2023-02-22T05:37:03;99322.25;;;9.12;78.86
16664;BME280;8445;51.270;9.434;2023-02-22T05:39:30;99319.81;;;9.09;79.14
16664;BME280;8445;51.270;9.434;2023-02-22T05:41:56;99313.81;;;9.07;79.56
16664;BME280;8445;51.270;9.434;2023-02-22T05:44:21;99315.84;;;9.03;79.60
16664;BME280;8445;51.270;9.434;2023-02-22T05:46:47;99319.63;;;8.99;79.62
16664;BME280;8445;51.270;9.434;2023-02-22T05:49:13;99316.88;;;9.00;79.35
16664;BME280;8445;51.270;9.434;2023-02-22T05:51:38;99311.94;;;8.96;79.26
16664;BME280;8445;51.270;9.434;2023-02-22T05:54:03;99309.38;;;8.94;79.63
16664;BME280;8445;51.270;9.434;2023-02-22T05:56:29;99306.88;;;8.93;79.41
16664;BME280;8445;51.270;9.434;2023-02-22T05:58:55;99310.34;;;8.93;79.33
16664;BME280;8445;51.270;9.434;2023-02-22T06:01:21;99313.09;;;8.92;79.12
16664;BME280;8445;51.270;9.434;2023-02-22T06:03:48;99312.97;;;8.93;79.52
16664;BME280;8445;51.270;9.434;2023-02-22T06:06:15;99305.91;;;8.94;79.38
16664;BME280;8445;51.270;9.434;2023-02-22T06:08:41;99309.59;;;8.91;79.08
16664;BME280;8445;51.270;9.434;2023-02-22T06:11:06;99309.81;;;8.88;79.72
16664;BME280;8445;51.270;9.434;2023-02-22T06:13:34;99311.50;;;8.89;79.18
16664;BME280;8445;51.270;9.434;2023-02-22T06:16:00;99305.28;;;8.90;79.04
16664;BME280;8445;51.270;9.434;2023-02-22T06:18:26;99309.06;;;8.86;79.36
16664;BME280;8445;51.270;9.434;2023-02-22T06:20:54;99320.50;;;8.86;79.16
16664;BME280;8445;51.270;9.434;2023-02-22T06:23:20;99325.16;;;8.83;79.22
16664;BME280;8445;51.270;9.434;2023-02-22T06:25:45;99321.78;;;8.81;79.67
16664;BME280;8445;51.270;9.434;2023-02-22T06:28:11;99320.09;;;8.80;79.39
16664;BME280;8445;51.270;9.434;2023-02-22T06:30:36;99322.59;;;8.81;79.13
16664;BME280;8445;51.270;9.434;2023-02-22T06:33:01;99333.16;;;8.81;79.45
16664;BME280;8445;51.270;9.434;2023-02-22T06:35:27;99321.88;;;8.79;79.97
16664;BME280;8445;51.270;9.434;2023-02-22T06:37:52;99326.31;;;8.79;79.89
16664;BME280;8445;51.270;9.434;2023-02-22T06:40:18;99323.56;;;8.80;80.17
16664;BME280;8445;51.270;9.434;2023-02-22T06:42:46;99323.34;;;8.83;79.92
16664;BME280;8445;51.270;9.434;2023-02-22T06:45:12;99335.47;;;8.86;80.01
16664;BME280;8445;51.270;9.434;2023-02-22T06:47:39;99328.28;;;8.88;80.00
16664;BME280;8445;51.270;9.434;2023-02-22T06:50:06;99330.72;;;8.91;79.71
16664;BME280;8445;51.270;9.434;2023-02-22T06:52:32;99339.34;;;8.93;79.79
16664;BME280;8445;51.270;9.434;2023-02-22T06:54:57;99335.88;;;8.93;79.86
16664;BME280;8445;51.270;9.434;2023-02-22T06:57:23;99334.94;;;8.94;79.93
16664;BME280;8445;51.270;9.434;2023-02-22T07:00:09;99336.63;;;8.95;79.75
16664;BME280;8445;51.270;9.434;2023-02-22T07:02:35;99328.50;;;8.98;79.83
16664;BME280;8445;51.270;9.434;2023-02-22T07:05:01;99335.34;;;9.00;80.03
16664;BME280;8445;51.270;9.434;2023-02-22T07:07:26;99336.19;;;9.01;80.15
16664;BME280;8445;51.270;9.434;2023-02-22T07:09:52;99330.81;;;9.02;79.95
16664;BME280;8445;51.270;9.434;2023-02-22T07:12:17;99343.25;;;9.00;80.45
16664;BME280;8445;51.270;9.434;2023-02-22T07:14:43;99344.34;;;8.98;80.94
16664;BME280;8445;51.270;9.434;2023-02-22T07:17:08;99339.88;;;8.98;80.79
16664;BME280;8445;51.270;9.434;2023-02-22T07:19:33;99348.53;;;9.00;80.54
16664;BME280;8445;51.270;9.434;2023-02-22T07:21:59;99326.16;;;9.06;80.61
16664;BME280;8445;51.270;9.434;2023-02-22T07:24:26;99332.50;;;9.03;80.53
16664;BME280;8445;51.270;9.434;2023-02-22T07:26:54;99339.56;;;9.03;80.67
16664;BME280;8445;51.270;9.434;2023-02-22T07:29:19;99336.72;;;9.06;80.93
16664;BME280;8445;51.270;9.434;2023-02-22T07:31:46;99335.56;;;9.10;80.89
16664;BME280;8445;51.270;9.434;2023-02-22T07:34:12;99345.78;;;9.15;81.30
16664;BME280;8445;51.270;9.434;2023-02-22T07:36:38;99340.91;;;9.22;80.99
16664;BME280;8445;51.270;9.434;2023-02-22T07:39:04;99343.97;;;9.28;80.75
16664;BME280;8445;51.270;9.434;2023-02-22T07:41:33;99343.41;;;9.36;80.64
16664;BME280;8445;51.270;9.434;2023-02-22T07:43:59;99339.94;;;9.36;80.84
16664;BME280;8445;51.270;9.434;2023-02-22T07:46:24;99339.59;;;9.40;80.80
16664;BME280;8445;51.270;9.434;2023-02-22T07:48:49;99338.19;;;9.47;80.92
16664;BME280;8445;51.270;9.434;2023-02-22T07:51:16;99333.44;;;9.53;81.16
16664;BME280;8445;51.270;9.434;2023-02-22T07:53:42;99336.69;;;9.56;81.01
16664;BME280;8445;51.270;9.434;2023-02-22T07:56:32;99334.03;;;9.56;80.65
16664;BME280;8445;51.270;9.434;2023-02-22T07:59:02;99336.69;;;9.56;80.91
16664;BME280;8445;51.270;9.434;2023-02-22T08:01:27;99335.50;;;9.60;80.85
16664;BME280;8445;51.270;9.434;2023-02-22T08:03:53;99332.63;;;9.63;81.26
16664;BME280;8445;51.270;9.434;2023-02-22T08:06:21;99326.69;;;9.73;81.32
16664;BME280;8445;51.270;9.434;2023-02-22T08:08:51;99331.53;;;9.79;81.27
16664;BME280;8445;51.270;9.434;2023-02-22T08:11:18;99327.19;;;9.78;81.20
16664;BME280;8445;51.270;9.434;2023-02-22T08:13:52;99327.28;;;9.76;81.18
16664;BME280;8445;51.270;9.434;2023-02-22T08:16:18;99325.50;;;9.77;80.98
16664;BME280;8445;51.270;9.434;2023-02-22T08:18:45;99324.31;;;9.81;81.00
16664;BME280;8445;51.270;9.434;2023-02-22T08:21:10;99323.38;;;9.82;81.32
16664;BME280;8445;51.270;9.434;2023-02-22T08:23:35;99328.22;;;9.88;81.37
16664;BME280;8445;51.270;9.434;2023-02-22T08:26:09;99311.41;;;9.89;81.37
16664;BME280;8445;51.270;9.434;2023-02-22T08:28:39;99319.09;;;9.92;81.30
16664;BME280;8445;51.270;9.434;2023-02-22T08:31:05;99317.69;;;10.00;81.70
16664;BME280;8445;51.270;9.434;2023-02-22T08:33:33;99313.50;;;10.08;81.64
16664;BME280;8445;51.270;9.434;2023-02-22T08:35:59;99314.72;;;10.16;81.55
16664;BME280;8445;51.270;9.434;2023-02-22T08:38:28;99314.28;;;10.22;81.56
16664;BME280;8445;51.270;9.434;2023-02-22T08:40:56;99310.06;;;10.31;81.57
16664;BME280;8445;51.270;9.434;2023-02-22T08:43:22;99312.88;;;10.41;81.47
16664;BME280;8445;51.270;9.434;2023-02-22T08:45:48;99304.16;;;10.51;81.59
16664;BME280;8445;51.270;9.434;2023-02-22T08:48:17;99302.56;;;10.60;81.34
16664;BME280;8445;51.270;9.434;2023-02-22T08:50:43;99304.38;;;10.71;81.62
16664;BME280;8445;51.270;9.434;2023-02-22T08:53:11;99301.75;;;10.82;81.66
16664;BME280;8445;51.270;9.434;2023-02-22T08:55:38;99302.94;;;10.90;81.26
16664;BME280;8445;51.270;9.434;2023-02-22T08:58:05;99300.78;;;10.95;81.25
16664;BME280;8445;51.270;9.434;2023-02-22T09:00:34;99301.59;;;11.07;81.49
16664;BME280;8445;51.270;9.434;2023-02-22T09:03:04;99294.75;;;11.16;80.98
16664;BME280;8445;51.270;9.434;2023-02-22T09:05:30;99301.59;;;11.18;80.95
16664;BME280;8445;51.270;9.434;2023-02-22T09:07:56;99293.03;;;11.26;81.60
16664;BME280;8445;51.270;9.434;2023-02-22T09:10:26;99287.84;;;11.36;81.00
16664;BME280;8445;51.270;9.434;2023-02-22T09:12:53;99295.63;;;11.49;81.86
16664;BME280;8445;51.270;9.434;2023-02-22T09:15:20;99295.63;;;11.60;81.19
16664;BME280;8445;51.270;9.434;2023-02-22T09:17:46;99282.84;;;11.65;80.92
16664;BME280;8445;51.270;9.434;2023-02-22T09:20:15;99287.63;;;11.71;81.07
16664;BME280;8445;51.270;9.434;2023-02-22T09:22:48;99288.78;;;11.79;81.50
16664;BME280;8445;51.270;9.434;2023-02-22T09:25:14;99282.97;;;11.85;81.58
16664;BME280;8445;51.270;9.434;2023-02-22T09:27:40;99278.59;;;11.95;82.02
16664;BME280;8445;51.270;9.434;2023-02-22T09:30:10;99278.06;;;12.13;82.14
16664;BME280;8445;51.270;9.434;2023-02-22T09:32:39;99274.38;;;12.25;80.86
16664;BME280;8445;51.270;9.434;2023-02-22T09:35:07;99276.50;;;12.32;80.55
16664;BME280;8445;51.270;9.434;2023-02-22T09:37:36;99272.88;;;12.33;80.02
16664;BME280;8445;51.270;9.434;2023-02-22T09:40:04;99271.91;;;12.34;79.73
16664;BME280;8445;51.270;9.434;2023-02-22T09:42:40;99275.00;;;12.39;80.53
16664;BME280;8445;51.270;9.434;2023-02-22T09:45:23;99272.53;;;12.47;79.34
16664;BME280;8445;51.270;9.434;2023-02-22T09:47:55;99263.47;;;12.50;79.96
16664;BME280;8445;51.270;9.434;2023-02-22T09:50:25;99263.06;;;12.54;80.31
16664;BME280;8445;51.270;9.434;2023-02-22T09:52:57;99269.53;;;12.62;79.55
16664;BME280;8445;51.270;9.434;2023-02-22T09:57:56;99263.19;;;12.84;79.98
16664;BME280;8445;51.270;9.434;2023-02-22T10:00:30;99266.91;;;13.02;81.04
16664;BME280;8445;51.270;9.434;2023-02-22T10:08:29;99258.69;;;13.25;79.50
16664;BME280;8445;51.270;9.434;2023-02-22T10:22:34;99249.09;;;12.52;76.71
16664;BME280;8445;51.270;9.434;2023-02-22T10:25:09;99244.72;;;12.41;78.66
16664;BME280;8445;51.270;9.434;2023-02-22T10:28:17;99244.78;;;12.30;76.97
16664;BME280;8445;51.270;9.434;2023-02-22T10:30:53;99240.00;;;12.24;77.15
16664;BME280;8445;51.270;9.434;2023-02-22T10:33:28;99236.19;;;12.16;76.63
16664;BME280;8445;51.270;9.434;2023-02-22T10:35:57;99235.13;;;12.19;78.75
16664;BME280;8445;51.270;9.434;2023-02-22T10:38:32;99237.50;;;12.22;77.97
16664;BME280;8445;51.270;9.434;2023-02-22T10:41:03;99234.72;;;12.24;77.70
16664;BME280;8445;51.270;9.434;2023-02-22T10:43:43;99228.59;;;12.23;77.86
16664;BME280;8445;51.270;9.434;2023-02-22T10:46:12;99230.34;;;12.13;77.61
16664;BME280;8445;51.270;9.434;2023-02-22T10:48:41;99230.41;;;12.01;77.82
16664;BME280;8445;51.270;9.434;2023-02-22T10:51:09;99233.03;;;12.01;77.65
16664;BME280;8445;51.270;9.434;2023-02-22T10:53:36;99221.00;;;11.97;77.70
16664;BME280;8445;51.270;9.434;2023-02-22T10:56:22;99211.34;;;11.96;77.23
16664;BME280;8445;51.270;9.434;2023-02-22T10:59:01;99211.59;;;11.93;76.80
16664;BME280;8445;51.270;9.434;2023-02-22T11:09:23;99204.13;;;11.98;76.55
16664;BME280;8445;51.270;9.434;2023-02-22T11:12:18;99208.81;;;12.06;75.12
16664;BME280;8445;51.270;9.434;2023-02-22T11:14:47;99206.72;;;12.10;76.60
16664;BME280;8445;51.270;9.434;2023-02-22T11:17:18;99213.72;;;12.11;76.94
16664;BME280;8445;51.270;9.434;2023-02-22T11:19:49;99204.53;;;12.15;76.45
16664;BME280;8445;51.270;9.434;2023-02-22T11:22:41;99203.75;;;12.24;76.67
16664;BME280;8445;51.270;9.434;2023-02-22T11:25:07;99202.25;;;12.32;77.08
16664;BME280;8445;51.270;9.434;2023-02-22T11:27:40;99200.00;;;12.37;75.74
16664;BME280;8445;51.270;9.434;2023-02-22T11:30:21;99194.88;;;12.45;76.32
16664;BME280;8445;51.270;9.434;2023-02-22T11:35:50;99188.22;;;12.51;74.28
16664;BME280;8445;51.270;9.434;2023-02-22T11:38:18;99189.19;;;12.50;75.52
16664;BME280;8445;51.270;9.434;2023-02-22T11:40:45;99178.56;;;12.50;75.17
16664;BME280;8445;51.270;9.434;2023-02-22T11:43:24;99175.06;;;12.49;75.23
16664;BME280;8445;51.270;9.434;2023-02-22T11:48:27;99171.72;;;12.47;75.00
16664;BME280;8445;51.270;9.434;2023-02-22T11:51:07;99168.53;;;12.53;74.80
16664;BME280;8445;51.270;9.434;2023-02-22T11:56:15;99158.63;;;12.55;75.43
16664;BME280;8445;51.270;9.434;2023-02-22T11:58:49;99161.44;;;12.64;75.81
16664;BME280;8445;51.270;9.434;2023-02-22T12:01:35;99158.69;;;12.75;75.54
16664;BME280;8445;51.270;9.434;2023-02-22T12:10:17;99148.38;;;13.11;73.61
16664;BME280;8445;51.270;9.434;2023-02-22T12:12:53;99148.94;;;13.25;74.84
16664;BME280;8445;51.270;9.434;2023-02-22T12:15:33;99152.03;;;13.30;74.20
16664;BME280;8445;51.270;9.434;2023-02-22T12:18:30;99144.75;;;13.32;72.92
16664;BME280;8445;51.270;9.434;2023-02-22T12:21:01;99148.41;;;13.31;74.28
16664;BME280;8445;51.270;9.434;2023-02-22T12:23:52;99144.75;;;13.32;72.69
16664;BME280;8445;51.270;9.434;2023-02-22T12:26:27;99148.81;;;13.36;74.18
16664;BME280;8445;51.270;9.434;2023-02-22T12:28:59;99144.47;;;13.55;74.02
16664;BME280;8445;51.270;9.434;2023-02-22T12:31:39;99139.00;;;13.66;73.96
16664;BME280;8445;51.270;9.434;2023-02-22T12:34:33;99137.19;;;13.76;73.60
16664;BME280;8445;51.270;9.434;2023-02-22T12:37:12;99146.97;;;13.86;73.56
16664;BME280;8445;51.270;9.434;2023-02-22T12:41:45;99128.72;;;14.01;71.75
16664;BME280;8445;51.270;9.434;2023-02-22T12:44:20;99132.06;;;14.13;73.55
16664;BME280;8445;51.270;9.434;2023-02-22T12:46:54;99135.66;;;14.21;73.85
16664;BME280;8445;51.270;9.434;2023-02-22T12:50:00;99130.28;;;14.31;72.42
16664;BME280;8445;51.270;9.434;2023-02-22T12:55:22;99128.22;;;14.53;72.88
16664;BME280;8445;51.270;9.434;2023-02-22T13:00:33;99121.06;;;14.81;72.12
16664;BME280;8445;51.270;9.434;2023-02-22T13:03:38;99120.69;;;14.94;73.11
16664;BME280;8445;51.270;9.434;2023-02-22T13:09:05;99117.72;;;14.97;69.51
16664;BME280;8445;51.270;9.434;2023-02-22T13:11:35;99115.38;;;14.94;72.09
16664;BME280;8445;51.270;9.434;2023-02-22T13:14:39;99117.34;;;14.92;69.48
16664;BME280;8445;51.270;9.434;2023-02-22T13:17:18;99107.00;;;14.89;71.64
16664;BME280;8445;51.270;9.434;2023-02-22T13:22:46;99111.53;;;14.79;71.30
16664;BME280;8445;51.270;9.434;2023-02-22T13:27:54;99096.50;;;14.70;70.85
16664;BME280;8445;51.270;9.434;2023-02-22T13:52:09;99074.38;;;14.59;70.57
16664;BME280;8445;51.270;9.434;2023-02-22T13:54:43;99069.66;;;14.53;67.46
16664;BME280;8445;51.270;9.434;2023-02-22T13:57:58;99074.59;;;14.48;68.04
16664;BME280;8445;51.270;9.434;2023-02-22T14:00:44;99071.75;;;14.31;69.41
16664;BME280;8445;51.270;9.434;2023-02-22T14:10:49;99055.28;;;14.18;69.45
16664;BME280;8445;51.270;9.434;2023-02-22T14:13:17;99053.47;;;14.18;70.06
16664;BME280;8445;51.270;9.434;2023-02-22T14:18:26;99045.72;;;14.25;70.01
16664;BME280;8445;51.270;9.434;2023-02-22T14:36:22;99044.25;;;14.41;69.36
16664;BME280;8445;51.270;9.434;2023-02-22T14:38:50;99039.00;;;14.31;68.90
16664;BME280;8445;51.270;9.434;2023-02-22T14:41:21;99041.56;;;14.22;69.09
16664;BME280;8445;51.270;9.434;2023-02-22T14:43:53;99031.22;;;14.19;69.27
16664;BME280;8445;51.270;9.434;2023-02-22T14:46:22;99034.00;;;14.18;68.89
16664;BME280;8445;51.270;9.434;2023-02-22T14:48:54;99031.34;;;14.18;68.79
16664;BME280;8445;51.270;9.434;2023-02-22T14:51:26;99031.34;;;14.18;68.52
16664;BME280;8445;51.270;9.434;2023-02-22T14:54:02;99026.19;;;14.16;68.75
16664;BME280;8445;51.270;9.434;2023-02-22T14:56:41;99021.69;;;14.17;68.25
16664;BME280;8445;51.270;9.434;2023-02-22T14:59:19;99019.41;;;14.22;68.47
16664;BME280;8445;51.270;9.434;2023-02-22T15:01:45;99023.16;;;14.29;68.52
16664;BME280;8445;51.270;9.434;2023-02-22T15:04:26;99021.88;;;14.33;68.08
16664;BME280;8445;51.270;9.434;2023-02-22T15:06:53;99016.25;;;14.36;68.31
16664;BME280;8445;51.270;9.434;2023-02-22T15:09:22;99023.81;;;14.41;68.19
16664;BME280;8445;51.270;9.434;2023-02-22T15:14:31;99015.97;;;14.40;68.36
16664;BME280;8445;51.270;9.434;2023-02-22T15:17:06;99013.59;;;14.36;67.83
16664;BME280;8445;51.270;9.434;2023-02-22T15:19:42;99012.91;;;14.34;68.33
16664;BME280;8445;51.270;9.434;2023-02-22T15:22:24;99013.50;;;14.28;66.96
16664;BME280;8445;51.270;9.434;2023-02-22T15:25:07;99012.44;;;14.21;66.31
16664;BME280;8445;51.270;9.434;2023-02-22T15:27:34;99007.88;;;14.13;67.96
16664;BME280;8445;51.270;9.434;2023-02-22T15:30:05;99011.66;;;14.11;68.10
16664;BME280;8445;51.270;9.434;2023-02-22T15:32:39;99020.47;;;14.11;68.00
16664;BME280;8445;51.270;9.434;2023-02-22T15:35:15;99012.50;;;14.11;67.20
16664;BME280;8445;51.270;9.434;2023-02-22T15:37:45;99006.09;;;14.04;67.78
16664;BME280;8445;51.270;9.434;2023-02-22T15:40:17;99003.88;;;13.99;67.73
16664;BME280;8445;51.270;9.434;2023-02-22T15:42:51;99011.31;;;13.96;67.39
16664;BME280;8445;51.270;9.434;2023-02-22T15:45:19;99013.72;;;13.89;67.84
16664;BME280;8445;51.270;9.434;2023-02-22T15:47:48;99010.38;;;13.87;67.59
16664;BME280;8445;51.270;9.434;2023-02-22T15:52:48;99018.41;;;13.77;67.49
16664;BME280;8445;51.270;9.434;2023-02-22T15:55:44;99020.22;;;13.76;66.84
16664;BME280;8445;51.270;9.434;2023-02-22T16:00:42;99018.59;;;13.56;67.05